Аэропорт: Нариманово. Астрахань

ICAO: URWA

METAR:
2021-01-19 11:30:00
URWA 191130Z 29002MPS 260V340 CAVOK M04/M11 Q1019 R27/010070 NOSIG RMK QFE766/1021
METAR:
2021-01-19 08:00:00
TAF URWA 190800Z 1909/1918 30003G09MPS 9999 BKN016 TEMPO 1915/1918 24003G08MPS